Time;durP1;ratioP1;P1;durP2;ratioP2;P2;SDS_P1;SDS_P2;PMS_P1;PMS_P2;Temp;Humidity;BMP_temperature;BMP_pressure;BME280_temperature;BME280_humidity;BME280_pressure;Samples;Min_cycle;Max_cycle;Signal;HPM_P1;HPM_P2
2022/07/03 00:00:10;;;;;;;7.50;6.47;;;;;;;17.80;71.94;96871.63;5096681;28;20044;-61
2022/07/03 00:02:37;;;;;;;9.23;6.65;;;;;;;17.81;71.61;96873.34;5096849;28;20500;-61
2022/07/03 00:05:05;;;;;;;9.57;6.03;;;;;;;17.83;71.62;96868.81;5096705;28;20109;-61
2022/07/03 00:07:33;;;;;;;7.72;6.30;;;;;;;17.88;71.85;96865.88;5096654;28;20173;-61
2022/07/03 00:10:00;;;;;;;7.18;5.97;;;;;;;17.88;71.54;96864.06;5096628;28;20080;-61
2022/07/03 00:12:27;;;;;;;9.23;6.20;;;;;;;17.84;71.75;96861.69;5096531;28;20044;-61
2022/07/03 00:14:55;;;;;;;8.43;6.80;;;;;;;17.79;71.97;96868.13;5096366;28;20059;-61
2022/07/03 00:17:22;;;;;;;11.52;6.63;;;;;;;17.80;71.96;96869.00;5096115;28;20448;-61
2022/07/03 00:19:49;;;;;;;7.13;6.53;;;;;;;17.82;71.57;96859.16;5096326;28;20482;-61
2022/07/03 00:22:17;;;;;;;7.13;6.43;;;;;;;17.84;71.48;96859.91;5096376;28;20117;-61
2022/07/03 00:24:51;;;;;;;9.07;6.72;;;;;;;17.83;71.55;96858.22;5096350;28;20052;-61
2022/07/03 00:27:20;;;;;;;8.02;6.10;;;;;;;17.85;71.56;96852.84;5096104;28;20101;-61
2022/07/03 00:29:50;;;;;;;11.93;6.72;;;;;;;17.83;71.92;96846.78;5096076;28;20101;-61
2022/07/03 00:32:22;;;;;;;6.93;6.20;;;;;;;17.82;71.70;96851.22;5096100;28;20070;-61
2022/07/03 00:34:52;;;;;;;9.70;6.47;;;;;;;17.81;71.31;96844.22;5095661;28;20048;-61
2022/07/03 00:37:20;;;;;;;12.20;6.13;;;;;;;17.78;71.54;96839.13;5095697;28;20409;-61
2022/07/03 00:39:49;;;;;;;7.47;6.78;;;;;;;17.74;72.33;96843.78;5095978;28;20101;-61
2022/07/03 00:42:17;;;;;;;6.78;6.10;;;;;;;17.73;72.07;96846.53;5095983;28;20039;-61
2022/07/03 00:44:48;;;;;;;8.27;6.45;;;;;;;17.70;71.81;96842.25;5095944;28;20056;-61
2022/07/03 00:47:16;;;;;;;7.65;6.57;;;;;;;17.67;71.76;96827.44;5095867;28;20059;-61
2022/07/03 00:49:46;;;;;;;7.25;6.55;;;;;;;17.66;72.09;96836.31;5095675;28;20444;-61
2022/07/03 00:52:15;;;;;;;12.23;6.68;;;;;;;17.67;71.98;96830.06;5095685;28;20047;-61
2022/07/03 00:54:46;;;;;;;6.72;6.03;;;;;;;17.65;71.65;96833.75;5095817;28;20375;-61
2022/07/03 00:57:18;;;;;;;7.90;7.20;;;;;;;17.64;71.72;96826.78;5095700;28;20048;-61
2022/07/03 00:59:45;;;;;;;7.20;6.45;;;;;;;17.59;71.69;96834.13;5095728;28;20078;-61
2022/07/03 01:02:20;;;;;;;7.30;6.60;;;;;;;17.49;72.13;96836.50;5095587;28;20047;-61
2022/07/03 01:04:53;;;;;;;7.07;6.38;;;;;;;17.47;72.43;96831.31;5095449;28;20071;-61
2022/07/03 01:07:42;;;;;;;7.78;6.97;;;;;;;17.47;72.81;96833.09;5095361;28;20440;-61
2022/07/03 01:10:16;;;;;;;9.25;5.97;;;;;;;17.48;72.80;96822.44;5095395;28;20047;-61
2022/07/03 01:12:56;;;;;;;9.00;6.38;;;;;;;17.48;72.52;96827.72;5095462;28;20044;-61
2022/07/03 01:15:42;;;;;;;8.80;6.88;;;;;;;17.42;73.43;96828.09;5095186;28;20055;-61
2022/07/03 01:18:29;;;;;;;9.07;7.40;;;;;;;17.36;73.37;96826.69;5094980;28;20498;-61
2022/07/03 01:21:06;;;;;;;7.03;6.35;;;;;;;17.37;73.56;96828.38;5095141;28;20127;-61
2022/07/03 01:23:57;;;;;;;7.70;7.00;;;;;;;17.38;73.28;96830.09;5095169;28;20048;-61
2022/07/03 01:26:29;;;;;;;8.73;7.03;;;;;;;17.44;73.50;96828.84;5095114;28;20048;-61
2022/07/03 01:29:00;;;;;;;8.73;6.88;;;;;;;17.41;73.36;96834.34;5094973;28;20093;-61
2022/07/03 01:31:28;;;;;;;8.88;6.28;;;;;;;17.41;73.03;96831.69;5095098;28;20105;-61
2022/07/03 01:33:55;;;;;;;10.75;7.13;;;;;;;17.36;72.84;96828.47;5094845;28;20052;-61
2022/07/03 01:36:25;;;;;;;8.57;6.65;;;;;;;17.34;72.89;96822.44;5094842;28;20045;-61
2022/07/03 01:38:53;;;;;;;7.17;6.53;;;;;;;17.25;73.42;96827.31;5094867;28;20052;-61
2022/07/03 01:41:22;;;;;;;8.00;7.30;;;;;;;17.26;74.37;96828.19;5094850;28;20448;-60
2022/07/03 01:43:56;;;;;;;7.20;6.53;;;;;;;17.27;73.46;96829.88;5094800;28;20123;-61
2022/07/03 01:46:29;;;;;;;11.98;6.68;;;;;;;17.25;73.39;96818.56;5094592;28;20083;-61
2022/07/03 01:48:56;;;;;;;8.55;6.55;;;;;;;17.26;73.42;96817.59;5093966;28;20055;-61
2022/07/03 01:51:24;;;;;;;9.63;6.63;;;;;;;17.26;73.40;96822.91;5094527;28;20072;-61
2022/07/03 01:53:53;;;;;;;7.65;6.68;;;;;;;17.21;73.32;96822.31;5094388;28;20097;-61
2022/07/03 01:56:22;;;;;;;7.43;6.38;;;;;;;17.20;73.28;96825.91;5094453;28;20456;-61
2022/07/03 01:58:50;;;;;;;9.93;6.85;;;;;;;17.18;73.12;96826.00;5094532;28;20076;-61
2022/07/03 02:01:22;;;;;;;6.68;6.07;;;;;;;17.14;73.65;96822.72;5094638;28;20131;-61
2022/07/03 02:04:02;;;;;;;9.85;6.68;;;;;;;17.13;73.44;96823.63;5094436;28;20056;-60
2022/07/03 02:06:40;;;;;;;8.50;7.07;;;;;;;17.16;73.80;96819.97;5094401;28;20135;-61
2022/07/03 02:09:10;;;;;;;7.50;6.78;;;;;;;17.14;73.31;96822.72;5094284;28;20413;-61
2022/07/03 02:11:39;;;;;;;7.03;6.37;;;;;;;17.15;73.83;96812.97;5094334;28;20045;-60
2022/07/03 02:14:13;;;;;;;7.10;6.40;;;;;;;17.13;73.50;96823.63;5094217;28;20461;-61
2022/07/03 02:16:55;;;;;;;7.20;6.45;;;;;;;17.08;73.55;96822.22;5094139;28;20083;-61
2022/07/03 02:19:29;;;;;;;7.68;6.57;;;;;;;16.99;73.60;96820.94;5093970;28;20044;-61
2022/07/03 02:21:58;;;;;;;8.43;6.97;;;;;;;16.92;73.89;96815.19;5093996;28;20478;-61
2022/07/03 02:24:27;;;;;;;7.72;6.35;;;;;;;16.91;74.27;96819.59;5093878;28;20101;-60
2022/07/03 02:26:57;;;;;;;8.52;6.50;;;;;;;16.91;74.16;96821.41;5094080;28;20117;-61
2022/07/03 02:29:34;;;;;;;10.80;6.75;;;;;;;16.94;74.57;96813.28;5094012;28;20079;-60
2022/07/03 02:32:04;;;;;;;7.75;7.05;;;;;;;16.95;73.99;96811.50;5093937;28;20119;-61
2022/07/03 02:34:34;;;;;;;9.25;7.05;;;;;;;16.85;74.55;96806.75;5093798;28;20383;-61
2022/07/03 02:37:11;;;;;;;8.60;7.03;;;;;;;16.87;74.73;96819.88;5093716;28;20054;-61
2022/07/03 02:39:44;;;;;;;7.53;6.85;;;;;;;16.86;74.51;96818.19;5093632;28;20397;-61
2022/07/03 02:42:23;;;;;;;7.32;6.60;;;;;;;16.83;74.52;96813.09;5093748;28;20097;-61
2022/07/03 02:44:54;;;;;;;7.57;6.78;;;;;;;16.77;74.34;96817.78;5093826;28;20072;-61
2022/07/03 02:47:29;;;;;;;9.00;8.10;;;;;;;16.79;75.17;96822.97;5093535;28;20040;-61
2022/07/03 02:50:04;;;;;;;7.38;6.68;;;;;;;16.81;75.01;96815.81;5093578;28;20047;-61
2022/07/03 02:52:43;;;;;;;7.80;7.10;;;;;;;16.83;74.49;96815.72;5093408;28;20142;-61
2022/07/03 02:55:27;;;;;;;8.38;7.28;;;;;;;16.82;74.73;96822.78;5093468;28;20060;-61
2022/07/03 02:58:13;;;;;;;7.72;7.03;;;;;;;16.80;75.61;96824.69;5093457;28;20044;-61
2022/07/03 03:00:52;;;;;;;10.00;7.18;;;;;;;16.83;75.49;96818.38;5093350;28;20044;-61
2022/07/03 03:03:25;;;;;;;8.43;7.50;;;;;;;16.82;75.65;96824.59;5093298;28;20087;-61
2022/07/03 03:05:56;;;;;;;7.65;6.95;;;;;;;16.84;75.72;96820.91;5093310;28;20161;-61
2022/07/03 03:08:29;;;;;;;;;;;;;;;16.88;75.37;96827.72;5093826;28;20052;-62
2022/07/03 03:11:03;;;;;;;6.93;6.38;;;;;;;16.90;75.11;96836.41;5093386;28;20365;-61
2022/07/03 03:13:33;;;;;;;8.88;7.43;;;;;;;16.98;75.52;96840.38;5093205;28;20058;-61
2022/07/03 03:16:07;;;;;;;8.25;7.43;;;;;;;17.00;75.45;96828.78;5093123;28;20506;-61
2022/07/03 03:18:37;;;;;;;7.90;7.10;;;;;;;17.02;75.25;96826.91;5092967;28;20051;-61
2022/07/03 03:21:09;;;;;;;8.43;7.40;;;;;;;17.04;75.50;96832.09;5093229;28;20070;-61
2022/07/03 03:23:43;;;;;;;;;;;;;;;17.04;75.92;96835.56;5093693;28;20122;-61
2022/07/03 03:26:10;;;;;;;8.40;6.72;;;;;;;17.08;75.80;96833.66;5093195;28;20014;-61
2022/07/03 03:28:38;;;;;;;7.80;6.82;;;;;;;17.04;75.81;96827.66;5093217;28;20537;-61
2022/07/03 03:31:08;;;;;;;8.07;7.28;;;;;;;17.09;76.14;96832.69;5093206;28;20044;-61
2022/07/03 03:33:40;;;;;;;8.07;7.30;;;;;;;17.29;76.08;96835.94;5093022;28;20047;-61
2022/07/03 03:36:08;;;;;;;7.97;6.55;;;;;;;17.57;75.41;96838.69;5093111;28;20486;-61
2022/07/03 03:38:36;;;;;;;6.93;6.25;;;;;;;17.82;73.46;96830.03;5093131;28;20486;-61
2022/07/03 03:41:03;;;;;;;7.93;6.53;;;;;;;18.07;73.41;96825.88;5093026;28;20440;-61
2022/07/03 03:43:31;;;;;;;6.65;6.05;;;;;;;18.35;72.29;96820.59;5092928;28;20059;-61
2022/07/03 03:45:58;;;;;;;7.80;6.07;;;;;;;18.72;70.83;96822.63;5093054;28;20477;-61
2022/07/03 03:48:28;;;;;;;8.23;6.45;;;;;;;19.12;70.09;96821.75;5092943;28;20044;-61
2022/07/03 03:50:55;;;;;;;7.00;6.30;;;;;;;19.55;68.84;96825.88;5092976;28;20055;-61
2022/07/03 03:53:22;;;;;;;5.70;5.18;;;;;;;19.92;67.09;96822.41;5093037;28;20123;-61
2022/07/03 03:56:00;;;;;;;8.00;5.57;;;;;;;20.32;65.91;96824.03;5092875;28;20044;-62
2022/07/03 03:58:27;;;;;;;5.35;4.95;;;;;;;20.64;64.68;96833.22;5092994;28;20091;-61
2022/07/03 04:00:56;;;;;;;6.20;5.60;;;;;;;20.99;63.85;96834.22;5092818;28;20057;-62
2022/07/03 04:03:24;;;;;;;7.28;5.60;;;;;;;21.34;63.73;96831.50;5092753;28;20048;-62
2022/07/03 04:05:52;;;;;;;7.60;4.75;;;;;;;21.70;61.99;96831.41;5092906;28;20102;-62
2022/07/03 04:08:20;;;;;;;7.13;5.72;;;;;;;22.08;61.70;96824.03;5092751;28;20074;-62
2022/07/03 04:10:47;;;;;;;7.72;6.05;;;;;;;22.45;60.21;96828.16;5093787;28;20040;-62
2022/07/03 04:13:15;;;;;;;6.40;4.97;;;;;;;22.73;59.44;96830.41;5096763;28;20048;-62
2022/07/03 04:15:42;;;;;;;5.63;5.10;;;;;;;23.09;58.97;96835.44;5096369;28;20546;-62
2022/07/03 04:18:09;;;;;;;7.60;4.82;;;;;;;23.37;57.88;96830.44;5096265;28;20048;-62
2022/07/03 04:20:36;;;;;;;6.25;5.07;;;;;;;23.71;57.63;96826.66;5096471;28;20478;-62
2022/07/03 04:23:05;;;;;;;6.07;4.78;;;;;;;23.98;56.66;96823.38;5096425;28;20048;-62
2022/07/03 04:25:32;;;;;;;8.18;4.95;;;;;;;24.26;56.32;96822.75;5096442;28;20458;-62
2022/07/03 04:28:00;;;;;;;7.55;4.93;;;;;;;24.47;55.59;96828.00;5096348;28;20070;-62
2022/07/03 04:30:27;;;;;;;8.80;5.00;;;;;;;24.76;55.28;96826.31;5096182;28;20558;-62
2022/07/03 04:32:54;;;;;;;5.95;4.55;;;;;;;25.08;54.61;96827.03;5096059;28;20075;-62
2022/07/03 04:35:22;;;;;;;5.55;4.28;;;;;;;25.39;54.08;96818.81;5096013;28;20554;-62
2022/07/03 04:37:49;;;;;;;7.20;4.50;;;;;;;25.64;53.77;96821.84;5096093;28;20052;-62
2022/07/03 04:40:18;;;;;;;5.85;5.03;;;;;;;26.00;53.01;96821.13;5096017;28;20089;-62
2022/07/03 04:42:45;;;;;;;5.10;4.70;;;;;;;26.27;52.42;96824.75;5095880;28;20126;-62
2022/07/03 04:45:12;;;;;;;4.88;4.38;;;;;;;26.56;52.17;96815.72;5095837;28;20044;-62
2022/07/03 04:47:39;;;;;;;4.90;4.35;;;;;;;26.87;51.78;96826.06;5095849;28;20490;-62
2022/07/03 04:50:07;;;;;;;6.15;4.55;;;;;;;27.16;51.60;96828.63;5095907;28;20075;-62
2022/07/03 04:52:34;;;;;;;6.38;4.82;;;;;;;27.47;50.96;96825.47;5096029;28;20044;-62
2022/07/03 04:55:02;;;;;;;5.40;4.90;;;;;;;27.67;50.38;96823.47;5095729;28;20052;-62
2022/07/03 04:57:30;;;;;;;7.20;4.35;;;;;;;27.92;49.83;96828.94;5095814;28;20054;-63
2022/07/03 04:59:57;;;;;;;6.45;4.40;;;;;;;28.14;49.54;96821.28;5095697;28;20090;-62
2022/07/03 05:02:24;;;;;;;5.07;4.53;;;;;;;28.45;48.52;96822.56;5095636;28;20048;-63
2022/07/03 05:04:51;;;;;;;6.78;5.00;;;;;;;28.72;48.78;96826.81;5095560;28;20134;-63
2022/07/03 05:07:19;;;;;;;5.60;4.63;;;;;;;28.95;47.87;96826.19;5095500;28;20097;-63
2022/07/03 05:09:46;;;;;;;7.38;4.50;;;;;;;29.18;46.98;96830.88;5095406;28;20044;-63
2022/07/03 05:12:13;;;;;;;5.03;4.57;;;;;;;29.45;47.24;96828.84;5095375;28;20129;-63
2022/07/03 05:14:41;;;;;;;5.53;4.50;;;;;;;29.74;45.47;96824.72;5095375;28;20055;-63
2022/07/03 05:17:08;;;;;;;5.75;4.60;;;;;;;29.96;45.06;96825.00;5095322;28;20048;-63
2022/07/03 05:19:38;;;;;;;7.28;4.90;;;;;;;30.23;44.34;96833.66;5095277;28;20059;-63
2022/07/03 05:22:05;;;;;;;7.35;4.90;;;;;;;30.47;44.46;96831.84;5095312;28;20071;-63
2022/07/03 05:24:33;;;;;;;7.28;5.03;;;;;;;30.64;43.66;96820.94;5095285;28;20469;-63
2022/07/03 05:27:00;;;;;;;5.82;4.47;;;;;;;30.80;42.26;96830.81;5095165;28;20105;-62
2022/07/03 05:29:27;;;;;;;5.93;4.45;;;;;;;30.99;40.85;96823.22;5094961;28;20044;-63
2022/07/03 05:31:56;;;;;;;5.63;4.93;;;;;;;31.14;41.88;96834.06;5095223;28;20078;-63
2022/07/03 05:34:23;;;;;;;5.32;4.57;;;;;;;31.39;42.55;96829.31;5094947;28;20069;-63
2022/07/03 05:36:50;;;;;;;4.63;4.22;;;;;;;31.63;41.57;96830.06;5094822;28;20130;-63
2022/07/03 05:39:32;;;;;;;4.65;4.13;;;;;;;31.86;40.49;96837.25;5094795;28;20085;-63
2022/07/03 05:42:00;;;;;;;6.70;4.38;;;;;;;32.06;39.21;96833.16;5094825;28;20561;-63
2022/07/03 05:44:27;;;;;;;4.55;4.15;;;;;;;32.23;38.21;96829.22;5094898;28;20063;-63
2022/07/03 05:46:55;;;;;;;6.43;4.40;;;;;;;32.24;38.66;96830.88;5094921;28;20044;-63
2022/07/03 05:49:22;;;;;;;5.57;3.95;;;;;;;32.43;38.44;96834.00;5094669;28;20489;-63
2022/07/03 05:51:50;;;;;;;6.32;4.30;;;;;;;32.46;37.74;96833.63;5094522;28;20048;-63
2022/07/03 05:54:17;;;;;;;4.97;4.47;;;;;;;32.67;37.92;96837.41;5094522;28;20052;-63
2022/07/03 05:56:44;;;;;;;4.75;4.30;;;;;;;32.88;37.29;96841.16;5094385;28;20054;-63
2022/07/03 05:59:11;;;;;;;8.90;4.07;;;;;;;33.12;37.49;96845.38;5094551;28;20075;-63
2022/07/03 06:01:38;;;;;;;4.40;3.90;;;;;;;33.30;38.03;96837.78;5094407;28;20052;-63
2022/07/03 06:04:07;;;;;;;5.57;4.38;;;;;;;33.37;37.59;96838.66;5094478;28;20044;-63
2022/07/03 06:06:34;;;;;;;7.07;4.18;;;;;;;33.48;37.25;96840.84;5094410;28;20048;-63
2022/07/03 06:09:01;;;;;;;7.05;4.45;;;;;;;33.69;38.06;96852.69;5094217;28;20055;-62
2022/07/03 06:11:28;;;;;;;4.90;4.10;;;;;;;33.63;38.19;96850.78;5094347;28;20044;-63
2022/07/03 06:13:55;;;;;;;5.43;4.10;;;;;;;33.69;37.87;96857.25;5094190;28;20044;-63
2022/07/03 06:16:22;;;;;;;5.10;4.10;;;;;;;33.59;36.50;96849.50;5094112;28;20097;-63
2022/07/03 06:18:50;;;;;;;4.90;4.28;;;;;;;33.35;35.86;96851.59;5094014;28;20048;-63
2022/07/03 06:21:19;;;;;;;5.55;4.20;;;;;;;33.12;38.17;96834.53;5093998;28;20044;-63
2022/07/03 06:23:46;;;;;;;4.30;3.95;;;;;;;32.94;37.29;96851.22;5094049;28;20077;-63
2022/07/03 06:26:13;;;;;;;4.55;4.15;;;;;;;32.80;36.22;96844.00;5094151;28;20044;-62
2022/07/03 06:28:40;;;;;;;5.40;4.78;;;;;;;32.94;36.68;96843.09;5094028;28;20442;-63
2022/07/03 06:31:07;;;;;;;4.60;4.20;;;;;;;33.19;37.58;96837.28;5094188;28;20493;-63
2022/07/03 06:33:34;;;;;;;6.28;4.13;;;;;;;33.45;34.83;96848.53;5093401;28;20044;-62
2022/07/03 06:36:01;;;;;;;4.65;4.15;;;;;;;33.38;34.64;96843.88;5093606;28;20558;-62
2022/07/03 06:38:30;;;;;;;6.95;4.35;;;;;;;33.30;35.78;96843.19;5093705;28;20047;-62
2022/07/03 06:40:57;;;;;;;5.10;3.70;;;;;;;33.13;34.09;96846.19;5093915;28;20081;-62
2022/07/03 06:43:24;;;;;;;5.53;3.85;;;;;;;33.04;36.29;96842.78;5093659;28;20056;-62
2022/07/03 06:45:51;;;;;;;6.15;4.15;;;;;;;33.20;33.04;96852.50;5093578;28;20071;-62
2022/07/03 06:48:19;;;;;;;6.60;4.07;;;;;;;33.43;31.96;96842.47;5093629;28;20051;-62
2022/07/03 06:50:47;;;;;;;8.40;3.63;;;;;;;33.29;30.68;96842.38;5093725;28;20051;-62
2022/07/03 06:53:14;;;;;;;7.68;3.47;;;;;;;33.24;30.86;96840.25;5093644;28;20044;-62
2022/07/03 06:55:42;;;;;;;3.78;3.25;;;;;;;33.33;32.24;96834.69;5093772;28;20095;-62
2022/07/03 06:58:10;;;;;;;3.67;3.20;;;;;;;33.52;31.85;96836.69;5093488;28;20494;-62
2022/07/03 07:00:38;;;;;;;5.47;2.78;;;;;;;33.20;29.19;96836.25;5093328;28;20083;-62
2022/07/03 07:03:05;;;;;;;3.72;3.10;;;;;;;33.23;29.28;96829.63;5093500;28;20079;-62
2022/07/03 07:05:32;;;;;;;4.95;3.20;;;;;;;33.23;29.99;96838.56;5093342;28;20082;-62
2022/07/03 07:07:59;;;;;;;3.42;3.00;;;;;;;33.40;27.92;96832.84;5093456;28;20071;-62
2022/07/03 07:10:27;;;;;;;4.05;3.00;;;;;;;33.63;27.03;96838.06;5093311;28;20040;-62
2022/07/03 07:12:55;;;;;;;6.47;2.58;;;;;;;33.55;28.16;96829.22;5093451;28;20127;-62
2022/07/03 07:15:23;;;;;;;6.00;2.92;;;;;;;33.00;27.05;96827.94;5093333;28;20070;-62
2022/07/03 07:17:50;;;;;;;3.35;2.83;;;;;;;33.09;27.88;96829.50;5093163;28;20056;-62
2022/07/03 07:20:17;;;;;;;3.33;3.03;;;;;;;33.27;28.59;96829.03;5093363;28;20041;-62
2022/07/03 07:22:44;;;;;;;3.63;2.92;;;;;;;33.13;29.65;96828.06;5093198;28;20055;-62
2022/07/03 07:25:11;;;;;;;7.32;3.38;;;;;;;33.21;29.24;96828.97;5093444;28;20106;-62
2022/07/03 07:27:38;;;;;;;9.68;3.20;;;;;;;33.17;30.10;96823.13;5093102;28;20043;-62
2022/07/03 07:30:08;;;;;;;6.93;3.63;;;;;;;33.28;29.82;96833.41;5093256;28;20048;-62
2022/07/03 07:32:36;;;;;;;3.75;3.40;;;;;;;33.60;31.21;96829.47;5093132;28;20054;-62
2022/07/03 07:35:03;;;;;;;7.30;3.55;;;;;;;33.56;30.32;96837.16;5092990;28;20090;-62
2022/07/03 07:37:30;;;;;;;3.92;3.60;;;;;;;33.68;30.85;96829.34;5093297;28;20052;-62
2022/07/03 07:39:57;;;;;;;5.78;3.80;;;;;;;33.95;30.92;96829.44;5093277;28;20117;-62
2022/07/03 07:42:24;;;;;;;8.68;3.65;;;;;;;34.18;30.23;96832.91;5092997;28;20543;-61
2022/07/03 07:44:52;;;;;;;3.92;3.60;;;;;;;34.44;31.95;96834.06;5094285;28;20123;-62
2022/07/03 07:47:21;;;;;;;7.93;3.90;;;;;;;33.80;29.03;96839.63;5097022;28;20480;-61
2022/07/03 07:49:48;;;;;;;4.28;3.88;;;;;;;33.02;30.48;96831.28;5097197;28;20044;-62
2022/07/03 07:52:16;;;;;;;6.72;4.03;;;;;;;32.72;30.55;96834.13;5097087;28;20044;-62
2022/07/03 07:54:43;;;;;;;3.88;3.50;;;;;;;32.51;31.18;96833.91;5097019;28;20048;-61
2022/07/03 07:57:10;;;;;;;6.00;3.70;;;;;;;32.90;32.86;96836.41;5096837;28;20043;-62
2022/07/03 07:59:37;;;;;;;8.75;4.30;;;;;;;33.17;30.61;96833.09;5096831;28;20447;-61
2022/07/03 08:07:35;;;;;;;4.95;3.70;;;;;;;33.82;30.67;96843.78;5096696;28;20054;-62
2022/07/03 08:10:02;;;;;;;4.43;3.58;;;;;;;34.07;28.63;96840.56;5096655;28;20090;-62
2022/07/03 08:12:29;;;;;;;5.18;3.67;;;;;;;33.87;30.02;96840.47;5096600;28;20134;-61
2022/07/03 08:14:57;;;;;;;5.82;3.70;;;;;;;33.68;29.51;96836.63;5096521;28;20547;-62
2022/07/03 08:17:24;;;;;;;10.65;3.60;;;;;;;33.96;30.54;96839.28;5096271;28;20058;-62
2022/07/03 08:19:53;;;;;;;7.25;3.95;;;;;;;34.10;28.62;96836.63;5096479;28;20485;-61
2022/07/03 08:22:20;;;;;;;3.90;3.53;;;;;;;34.22;27.43;96840.44;5096642;28;20047;-62
2022/07/03 08:24:47;;;;;;;5.22;4.03;;;;;;;34.41;28.64;96840.75;5096285;28;20056;-62
2022/07/03 08:27:14;;;;;;;5.95;3.50;;;;;;;34.02;28.64;96837.63;5096172;28;20131;-62
2022/07/03 08:29:41;;;;;;;6.82;3.50;;;;;;;33.34;29.39;96836.34;5096192;28;20044;-61
2022/07/03 08:32:09;;;;;;;3.85;3.42;;;;;;;32.67;30.43;96841.97;5096170;28;20067;-61
2022/07/03 08:34:36;;;;;;;6.78;3.35;;;;;;;32.50;29.92;96847.63;5096208;28;20044;-61
2022/07/03 08:37:05;;;;;;;3.95;3.50;;;;;;;32.49;31.26;96833.28;5095971;28;20462;-61
2022/07/03 08:39:32;;;;;;;4.47;3.67;;;;;;;32.65;30.54;96842.19;5096260;28;20048;-62
2022/07/03 08:42:00;;;;;;;5.50;3.63;;;;;;;32.80;30.24;96844.81;5096184;28;20101;-61
2022/07/03 08:44:28;;;;;;;4.18;3.53;;;;;;;32.71;30.22;96844.13;5096165;28;20040;-61
2022/07/03 08:46:57;;;;;;;6.32;3.90;;;;;;;32.51;30.31;96831.22;5096056;28;20044;-61
2022/07/03 08:49:26;;;;;;;6.20;3.67;;;;;;;32.27;31.67;96846.72;5095849;28;20048;-61
2022/07/03 08:51:54;;;;;;;4.18;3.78;;;;;;;32.21;30.95;96844.81;5095776;28;20048;-62
2022/07/03 08:54:23;;;;;;;6.55;4.10;;;;;;;31.96;32.93;96845.09;5095714;28;20048;-61
2022/07/03 08:56:50;;;;;;;6.40;3.63;;;;;;;32.35;33.39;96844.97;5094976;28;20048;-61
2022/07/03 08:59:20;;;;;;;7.40;3.95;;;;;;;32.84;32.78;96845.28;5095607;28;20451;-62
2022/07/03 09:01:48;;;;;;;4.15;3.75;;;;;;;33.36;32.52;96837.84;5095705;28;20051;-62
2022/07/03 09:04:15;;;;;;;8.27;3.60;;;;;;;33.55;30.13;96838.16;5095601;28;20135;-62
2022/07/03 09:06:43;;;;;;;14.68;4.03;;;;;;;33.27;30.51;96847.16;5095613;28;20501;-61
2022/07/03 09:09:11;;;;;;;6.10;4.00;;;;;;;32.49;30.68;96844.09;5095626;28;20123;-61
2022/07/03 09:11:40;;;;;;;7.68;4.13;;;;;;;32.32;30.96;96842.63;5095467;28;20040;-61
2022/07/03 09:14:07;;;;;;;7.43;3.90;;;;;;;32.46;32.02;96839.03;5095447;28;20123;-62
2022/07/03 09:16:37;;;;;;;8.27;3.53;;;;;;;32.78;30.29;96834.19;5095498;28;20156;-62
2022/07/03 09:19:05;;;;;;;4.07;3.67;;;;;;;32.48;32.93;96839.72;5095084;28;20512;-61
2022/07/03 09:21:38;;;;;;;7.78;3.20;;;;;;;32.74;30.80;96842.88;5095330;28;20123;-61
2022/07/03 09:24:07;;;;;;;9.23;3.60;;;;;;;32.60;31.25;96834.63;5095292;28;20469;-61
2022/07/03 09:26:35;;;;;;;8.00;3.97;;;;;;;32.58;32.08;96835.84;5095169;28;20048;-61
2022/07/03 09:29:04;;;;;;;6.55;3.33;;;;;;;32.93;31.85;96829.75;5095324;28;20066;-61
2022/07/03 09:31:32;;;;;;;10.95;4.07;;;;;;;33.34;31.06;96836.34;5095046;28;20406;-61
2022/07/03 09:34:02;;;;;;;6.82;3.88;;;;;;;32.86;29.22;96838.66;5095117;28;20055;-61
2022/07/03 09:36:43;;;;;;;;;;;;;;;32.26;29.87;96834.25;5095276;28;20048;-62
2022/07/03 09:39:22;;;;;;;6.85;3.85;;;;;;;32.26;31.19;96828.84;5094957;28;19920;-62
2022/07/03 09:42:00;;;;;;;6.50;3.83;;;;;;;32.20;31.05;96828.75;5094945;28;20533;-61
2022/07/03 09:44:34;;;;;;;10.77;3.63;;;;;;;32.03;31.76;96832.50;5094715;28;20402;-61
2022/07/03 09:47:15;;;;;;;5.65;3.70;;;;;;;31.99;32.10;96823.09;5094764;28;20127;-61
2022/07/03 09:49:47;;;;;;;4.40;3.67;;;;;;;31.77;32.88;96816.75;5094728;28;20051;-61
2022/07/03 09:52:29;;;;;;;5.97;3.72;;;;;;;31.68;35.27;96824.09;5094665;28;20076;-61
2022/07/03 09:54:57;;;;;;;5.07;4.20;;;;;;;31.79;34.49;96812.00;5094601;28;20103;-61
2022/07/03 09:57:27;;;;;;;8.73;4.18;;;;;;;31.83;34.14;96823.25;5094523;28;20503;-61
2022/07/03 10:00:11;;;;;;;4.40;3.78;;;;;;;31.52;35.12;96814.31;5094436;28;20052;-61
2022/07/03 10:02:53;;;;;;;4.78;4.28;;;;;;;31.64;34.50;96803.88;5094360;28;20063;-61
2022/07/03 10:05:22;;;;;;;5.55;4.32;;;;;;;31.91;33.65;96809.66;5094376;28;20075;-61
2022/07/03 10:07:54;;;;;;;3.63;3.30;;;;;;;31.71;32.42;96795.84;5093775;28;20122;-61
2022/07/03 10:10:23;;;;;;;5.25;4.07;;;;;;;31.62;32.37;96814.03;5094022;28;20052;-61
2022/07/03 10:12:52;;;;;;;5.13;3.50;;;;;;;31.62;33.14;96804.06;5094155;28;20094;-61
2022/07/03 10:15:22;;;;;;;6.18;3.45;;;;;;;31.58;31.71;96799.22;5094264;28;20052;-61
2022/07/03 10:17:51;;;;;;;4.63;3.13;;;;;;;31.66;30.99;96793.72;5093910;28;20052;-61
2022/07/03 10:20:26;;;;;;;9.60;3.22;;;;;;;31.95;31.42;96796.59;5094043;28;20075;-61
2022/07/03 10:22:54;;;;;;;5.15;3.45;;;;;;;31.87;31.76;96800.22;5094161;28;20512;-61
2022/07/03 10:25:22;;;;;;;5.65;3.35;;;;;;;31.83;31.64;96799.78;5094079;28;20413;-61
2022/07/03 10:27:51;;;;;;;4.45;3.25;;;;;;;32.03;31.99;96793.81;5093873;28;20094;-61
2022/07/03 10:30:22;;;;;;;8.63;3.45;;;;;;;32.20;30.36;96790.91;5093788;28;20044;-61
2022/07/03 10:32:52;;;;;;;4.55;3.72;;;;;;;32.08;30.46;96788.66;5093999;28;20040;-61
2022/07/03 10:35:23;;;;;;;8.10;3.13;;;;;;;32.08;31.00;96794.06;5093966;28;20094;-61
2022/07/03 10:38:14;;;;;;;4.70;3.40;;;;;;;32.08;30.11;96787.84;5093783;28;20048;-61
2022/07/03 10:46:25;;;;;;;4.65;3.53;;;;;;;32.70;30.18;96774.78;5093902;28;20046;-61
2022/07/03 10:48:53;;;;;;;;;;;;;;;32.39;29.39;96768.59;5094030;28;20047;-61
2022/07/03 10:51:24;;;;;;;5.30;3.30;;;;;;;32.10;30.45;96766.84;5093713;28;19966;-61
2022/07/03 10:53:52;;;;;;;;;;;;;;;32.03;30.40;96769.47;5094150;28;20044;-61
2022/07/03 10:56:20;;;;;;;7.45;3.85;;;;;;;31.87;31.12;96768.63;5093483;28;20006;-61
2022/07/03 10:58:56;;;;;;;3.45;2.90;;;;;;;31.71;32.12;96764.28;5093568;28;20101;-61
2022/07/03 11:01:33;;;;;;;4.70;3.10;;;;;;;31.59;31.62;96763.91;5093518;28;20051;-61
2022/07/03 11:04:02;;;;;;;5.15;3.53;;;;;;;31.49;31.48;96758.78;5093363;28;20040;-61
2022/07/03 11:07:07;;;;;;;5.72;3.42;;;;;;;31.31;31.17;96764.53;5092127;28;20047;-61
2022/07/03 11:09:34;;;;;;;4.53;3.45;;;;;;;31.01;31.41;96765.34;5093313;28;20516;-60
2022/07/03 11:12:01;;;;;;;5.40;3.50;;;;;;;31.03;32.11;96757.03;5093266;28;20089;-61
2022/07/03 11:14:30;;;;;;;13.85;3.63;;;;;;;31.03;31.80;96757.03;5093186;28;20075;-61
2022/07/03 11:17:21;;;;;;;7.38;3.38;;;;;;;31.33;32.35;96748.97;5093107;28;20055;-61
2022/07/03 11:22:35;;;;;;;3.58;3.28;;;;;;;32.13;32.31;96744.81;5093159;28;20055;-61
2022/07/03 11:25:03;;;;;;;5.15;3.35;;;;;;;32.20;30.51;96748.44;5093314;28;20387;-61
2022/07/03 11:27:35;;;;;;;8.00;3.60;;;;;;;32.09;31.82;96749.78;5093117;28;20044;-61
2022/07/03 11:30:03;;;;;;;7.95;3.40;;;;;;;31.63;32.11;96757.09;5093287;28;20048;-61
2022/07/03 11:32:48;;;;;;;5.72;3.80;;;;;;;31.27;32.79;96745.16;5093108;28;20555;-61
2022/07/03 11:35:48;;;;;;;5.50;3.50;;;;;;;31.53;31.55;96737.63;5093041;28;20135;-61
2022/07/03 11:38:21;;;;;;;3.80;3.38;;;;;;;31.73;32.68;96739.75;5093362;28;20052;-61
2022/07/03 11:40:52;;;;;;;11.82;3.78;;;;;;;31.63;31.89;96740.03;5092992;28;20123;-61
2022/07/03 11:43:20;;;;;;;3.70;3.10;;;;;;;31.41;32.46;96731.84;5093029;28;20123;-61
2022/07/03 11:45:49;;;;;;;12.20;3.75;;;;;;;31.24;33.08;96734.72;5093021;28;20044;-61
2022/07/03 11:48:19;;;;;;;4.10;3.28;;;;;;;31.19;32.34;96731.75;5093199;28;20126;-61
2022/07/03 11:50:47;;;;;;;;;;;;;;;31.42;33.92;96727.31;5093572;28;20102;-61
2022/07/03 11:53:25;;;;;;;3.90;3.30;;;;;;;31.51;31.91;96721.59;5093058;28;19920;-61
2022/07/03 11:55:55;;;;;;;7.38;3.47;;;;;;;31.59;32.60;96725.22;5093105;28;20135;-61
2022/07/03 11:58:22;;;;;;;11.00;3.58;;;;;;;31.67;33.74;96727.00;5092763;28;20048;-61
2022/07/03 12:00:51;;;;;;;4.13;3.75;;;;;;;31.43;33.15;96721.72;5092964;28;20076;-61